Time;durP1;ratioP1;P1;durP2;ratioP2;P2;SDS_P1;SDS_P2;PMS_P1;PMS_P2;Temp;Humidity;BMP_temperature;BMP_pressure;BME280_temperature;BME280_humidity;BME280_pressure;Samples;Min_cycle;Max_cycle;Signal;HPM_P1;HPM_P2
2022/01/25 00:24:18;;;;;;;30.30;22.63;;;16.50;35.70;;;;;;5075766;28;20055;-37
2022/01/25 00:24:48;;;;;;;28.95;22.15;;;16.50;35.80;;;;;;5076264;28;20552;-36
2022/01/25 00:32:19;;;;;;;29.55;22.48;;;16.50;35.70;;;;;;5074405;28;20021;-37
2022/01/25 00:34:45;;;;;;;29.42;22.90;;;16.50;35.80;;;;;;5074714;28;20063;-46
2022/01/25 00:37:12;;;;;;;28.15;22.13;;;16.50;35.70;;;;;;5074478;28;20043;-36
2022/01/25 00:39:38;;;;;;;29.35;22.70;;;16.50;36.40;;;;;;5074437;28;20047;-36
2022/01/25 00:42:10;;;;;;;28.35;21.95;;;16.50;35.80;;;;;;5074524;28;20080;-36
2022/01/25 00:44:39;;;;;;;28.65;22.40;;;16.40;35.80;;;;;;5075786;28;20043;-36
2022/01/25 00:47:06;;;;;;;29.35;21.50;;;16.50;35.80;;;;;;5075573;28;20061;-36
2022/01/25 00:49:36;;;;;;;28.35;22.45;;;16.50;35.80;;;;;;5074103;28;20012;-37
2022/01/25 00:52:19;;;;;;;30.73;22.30;;;16.50;35.70;;;;;;5075332;28;20013;-36
2022/01/25 00:54:46;;;;;;;29.08;22.40;;;16.40;35.80;;;;;;5089063;28;20044;-39
2022/01/25 00:57:12;;;;;;;28.33;21.90;;;16.40;35.70;;;;;;5095227;28;20062;-35
2022/01/25 00:59:38;;;;;;;26.73;21.95;;;16.40;35.60;;;;;;5077320;28;20012;-36
2022/01/25 01:02:07;;;;;;;29.77;22.02;;;16.40;35.70;;;;;;5077199;28;20019;-36
2022/01/25 01:04:34;;;;;;;28.77;22.30;;;16.40;35.70;;;;;;5095546;28;20012;-36
2022/01/25 01:07:06;;;;;;;27.00;21.75;;;16.40;35.70;;;;;;5095394;28;20024;-37
2022/01/25 01:09:35;;;;;;;29.23;21.98;;;16.40;35.70;;;;;;5095230;28;20034;-36
2022/01/25 01:12:07;;;;;;;28.48;22.02;;;16.50;35.70;;;;;;5094993;28;20031;-35
2022/01/25 01:31:38;;;;;;;27.58;21.40;;;16.30;35.80;;;;;;5079360;28;20028;-37
2022/01/25 01:41:34;;;;;;;28.52;21.98;;;16.30;35.80;;;;;;5094478;28;20024;-36
2022/01/25 01:44:03;;;;;;;28.55;22.65;;;16.20;35.80;;;;;;5094113;28;20032;-37
2022/01/25 01:49:01;;;;;;;27.10;21.63;;;16.20;35.80;;;;;;5094199;28;20020;-37
2022/01/25 01:51:31;;;;;;;28.50;22.27;;;16.20;35.80;;;;;;5094128;28;20016;-38
2022/01/25 01:54:05;;;;;;;28.60;21.70;;;16.20;35.80;;;;;;5094047;28;20052;-38
2022/01/25 01:56:31;;;;;;;27.38;20.85;;;16.20;35.80;;;;;;5094360;28;20125;-36
2022/01/25 01:59:01;;;;;;;27.42;21.38;;;16.20;35.90;;;;;;5094278;28;20035;-37
2022/01/25 02:01:28;;;;;;;26.98;21.60;;;16.20;35.80;;;;;;5076640;28;20001;-37
2022/01/25 02:03:54;;;;;;;29.27;21.90;;;16.20;35.90;;;;;;5076648;28;20020;-37
2022/01/25 02:06:21;;;;;;;28.27;21.70;;;16.20;35.70;;;;;;5076309;28;20481;-38
2022/01/25 02:08:47;;;;;;;26.98;21.13;;;16.20;35.70;;;;;;5076628;28;20136;-36
2022/01/25 02:11:13;;;;;;;26.10;20.45;;;16.10;35.80;;;;;;5094551;28;20032;-37
2022/01/25 02:13:42;;;;;;;26.23;20.73;;;16.20;35.90;;;;;;5076753;28;20032;-38
2022/01/25 02:16:14;;;;;;;25.95;20.50;;;16.10;35.80;;;;;;5076879;28;20104;-38
2022/01/25 02:24:08;;;;;;;26.58;20.38;;;16.20;35.80;;;;;;5094538;28;20027;-38
2022/01/25 02:26:34;;;;;;;24.98;20.60;;;16.10;35.80;;;;;;5076285;28;20383;-36
2022/01/25 02:29:00;;;;;;;25.45;20.27;;;16.10;35.80;;;;;;5059912;28;20024;-36
2022/01/25 02:31:27;;;;;;;27.02;21.13;;;16.10;35.80;;;;;;5076087;28;20123;-36
2022/01/25 02:33:53;;;;;;;25.25;20.08;;;16.10;35.70;;;;;;5075986;28;20073;-36
2022/01/25 02:36:26;;;;;;;24.75;20.10;;;16.10;35.60;;;;;;5094696;28;20043;-36
2022/01/25 02:38:52;;;;;;;25.20;19.85;;;16.10;35.70;;;;;;5077005;28;20028;-37
2022/01/25 02:41:19;;;;;;;27.98;20.80;;;16.10;35.70;;;;;;5094694;28;20424;-36
2022/01/25 02:43:46;;;;;;;24.77;20.67;;;16.10;35.70;;;;;;5094514;28;20052;-39
2022/01/25 02:48:57;;;;;;;25.58;20.58;;;16.10;35.80;;;;;;5095368;28;20023;-37
2022/01/25 02:51:31;;;;;;;25.02;20.58;;;16.10;35.80;;;;;;5095557;28;20027;-38
2022/01/25 02:53:57;;;;;;;26.60;20.05;;;16.10;35.90;;;;;;5095496;28;20069;-37
2022/01/25 02:56:24;;;;;;;25.67;20.00;;;16.00;35.90;;;;;;5078266;28;20016;-38
2022/01/25 02:58:50;;;;;;;24.25;19.77;;;16.00;36.00;;;;;;5095160;28;20024;-40
2022/01/25 03:01:17;;;;;;;25.50;19.88;;;16.00;36.00;;;;;;5060049;28;20027;-38
2022/01/25 03:03:43;;;;;;;25.13;20.60;;;16.00;36.00;;;;;;5077590;28;20111;-38
2022/01/25 03:06:09;;;;;;;23.88;19.02;;;16.00;36.00;;;;;;5077201;28;20094;-40
2022/01/25 03:08:35;;;;;;;26.23;19.63;;;16.00;36.00;;;;;;5076450;28;20020;-37
2022/01/25 03:11:03;;;;;;;23.50;19.10;;;16.00;35.90;;;;;;5076544;28;20441;-43
2022/01/25 03:13:37;;;;;;;22.50;19.17;;;16.00;35.90;;;;;;5094757;28;20054;-38
2022/01/25 03:16:07;;;;;;;23.98;19.17;;;16.00;36.00;;;;;;5094681;28;20099;-37
2022/01/25 03:21:15;;;;;;;24.33;19.30;;;16.00;36.00;;;;;;5077269;28;20048;-37
2022/01/25 03:23:41;;;;;;;24.55;19.30;;;16.00;36.00;;;;;;5079212;28;20535;-37
2022/01/25 03:26:07;;;;;;;24.08;19.30;;;16.00;36.00;;;;;;5076341;28;20039;-36
2022/01/25 03:28:33;;;;;;;23.80;18.77;;;16.00;36.10;;;;;;5076616;28;20394;-37
2022/01/25 03:31:00;;;;;;;23.35;18.95;;;15.90;36.00;;;;;;5094425;28;20023;-37
2022/01/25 03:33:26;;;;;;;22.92;19.00;;;15.90;36.10;;;;;;5077167;28;20059;-36
2022/01/25 03:35:52;;;;;;;23.10;18.58;;;15.90;36.10;;;;;;5077040;28;20017;-37
2022/01/25 03:38:18;;;;;;;23.20;18.17;;;15.90;36.10;;;;;;5075954;28;20017;-37
2022/01/25 03:40:45;;;;;;;22.05;18.27;;;15.90;36.00;;;;;;5076571;28;20039;-36
2022/01/25 03:43:13;;;;;;;23.95;18.17;;;15.90;36.10;;;;;;5094188;28;20026;-37
2022/01/25 03:45:42;;;;;;;23.42;18.55;;;15.90;36.10;;;;;;5076721;28;20478;-39
2022/01/25 03:50:40;;;;;;;22.75;18.17;;;15.90;36.10;;;;;;5076991;28;20033;-39
2022/01/25 03:53:06;;;;;;;23.40;18.03;;;15.90;36.20;;;;;;5059430;28;20020;-39
2022/01/25 03:55:32;;;;;;;21.30;17.55;;;15.90;36.10;;;;;;5090553;28;20278;-38
2022/01/25 03:57:59;;;;;;;22.85;18.05;;;15.90;36.20;;;;;;5076307;28;20068;-39
2022/01/25 04:00:25;;;;;;;21.38;17.85;;;15.90;36.20;;;;;;5077080;28;20034;-37
2022/01/25 04:02:54;;;;;;;21.75;17.33;;;15.90;36.20;;;;;;5097424;28;20036;-38
2022/01/25 04:05:23;;;;;;;20.73;16.60;;;15.90;36.30;;;;;;5097879;28;20008;-37
2022/01/25 04:07:52;;;;;;;21.65;17.15;;;15.80;36.20;;;;;;5080330;28;20016;-40
2022/01/25 04:10:18;;;;;;;21.30;17.20;;;15.80;36.10;;;;;;5097780;28;20023;-39
2022/01/25 04:12:46;;;;;;;21.70;16.90;;;15.80;36.10;;;;;;5097088;28;20040;-38
2022/01/25 04:15:12;;;;;;;22.70;17.58;;;15.80;36.20;;;;;;5079088;28;20004;-37
2022/01/25 04:17:42;;;;;;;19.92;16.77;;;15.80;36.20;;;;;;5097976;28;20446;-37
2022/01/25 04:20:20;;;;;;;20.42;16.88;;;15.80;36.20;;;;;;5080453;28;20047;-38
2022/01/25 04:25:32;;;;;;;20.35;16.15;;;15.80;36.30;;;;;;5097522;28;20043;-37
2022/01/25 04:28:04;;;;;;;21.17;15.88;;;15.80;36.30;;;;;;5080681;28;20015;-39
2022/01/25 04:30:30;;;;;;;20.85;16.42;;;15.80;36.30;;;;;;5078532;28;20024;-37
2022/01/25 04:49:05;;;;;;;21.65;16.25;;;15.70;36.50;;;;;;5081441;28;20039;-37
2022/01/25 04:55:09;;;;;;;18.90;15.68;;;15.70;36.60;;;;;;5095994;28;20042;-39
2022/01/25 05:02:42;;;;;;;17.80;14.45;;;15.90;36.20;;;;;;5095878;28;20020;-37
2022/01/25 05:05:17;;;;;;;18.00;14.07;;;16.00;36.20;;;;;;5095649;28;20008;-41
2022/01/25 05:08:03;;;;;;;17.05;13.50;;;16.10;36.10;;;;;;5078994;28;20149;-37
2022/01/25 05:10:32;;;;;;;15.88;13.10;;;16.10;35.90;;;;;;5095676;28;20020;-38
2022/01/25 05:13:16;;;;;;;17.03;14.00;;;16.20;35.90;;;;;;5093976;28;20017;-42
2022/01/25 05:18:16;;;;;;;18.83;14.60;;;16.60;35.10;;;;;;5095564;28;20040;-42
2022/01/25 05:23:26;;;;;;;16.52;13.80;;;16.70;34.60;;;;;;5095349;28;20501;-37
2022/01/25 05:25:56;;;;;;;16.60;13.68;;;16.90;34.50;;;;;;5095548;28;20024;-37
2022/01/25 05:28:23;;;;;;;15.38;12.68;;;16.90;34.30;;;;;;5077220;28;20020;-38
2022/01/25 05:30:50;;;;;;;17.17;13.18;;;17.00;34.20;;;;;;5096307;28;20043;-42
2022/01/25 05:33:16;;;;;;;14.73;12.38;;;17.10;34.00;;;;;;5079345;28;20029;-39
2022/01/25 05:35:42;;;;;;;17.23;13.13;;;17.10;34.00;;;;;;5079062;28;20018;-39
2022/01/25 05:38:09;;;;;;;14.93;12.02;;;17.20;33.90;;;;;;5077824;28;20024;-39
2022/01/25 05:40:57;;;;;;;16.40;12.35;;;17.20;33.80;;;;;;5078007;28;20013;-38
2022/01/25 05:46:11;;;;;;;14.20;11.35;;;17.30;33.70;;;;;;5096729;28;20054;-43
2022/01/25 05:48:36;;;;;;;14.50;11.40;;;17.40;33.60;;;;;;5095784;28;20016;-39
2022/01/25 05:51:03;;;;;;;14.60;12.10;;;17.50;33.50;;;;;;5078431;28;20020;-41
2022/01/25 05:53:29;;;;;;;13.73;11.57;;;17.60;33.40;;;;;;5078274;28;20497;-40
2022/01/25 05:55:55;;;;;;;14.57;11.60;;;17.60;33.20;;;;;;5078043;28;20024;-39
2022/01/25 05:58:21;;;;;;;16.20;10.77;;;17.80;33.20;;;;;;5060827;28;20016;-39
2022/01/25 06:00:47;;;;;;;14.90;11.43;;;17.80;33.00;;;;;;5061515;28;20031;-39
2022/01/25 06:03:14;;;;;;;14.30;11.15;;;17.90;32.80;;;;;;5096360;28;20016;-39
2022/01/25 06:05:40;;;;;;;13.77;10.70;;;18.00;32.80;;;;;;5077898;28;20510;-43
2022/01/25 06:08:09;;;;;;;12.38;10.35;;;18.10;32.60;;;;;;5095161;28;20008;-47
2022/01/25 06:10:34;;;;;;;14.02;10.27;;;18.20;32.50;;;;;;5077803;28;20048;-41
2022/01/25 06:13:00;;;;;;;14.15;10.40;;;18.20;32.40;;;;;;5076691;28;20490;-38
2022/01/25 06:15:26;;;;;;;12.20;10.20;;;18.30;32.30;;;;;;5094553;28;20095;-38
2022/01/25 06:17:52;;;;;;;12.40;10.30;;;18.40;32.30;;;;;;5094685;28;20034;-40
2022/01/25 06:20:18;;;;;;;13.52;10.15;;;18.40;32.20;;;;;;5094358;28;20534;-45
2022/01/25 06:22:45;;;;;;;13.82;10.10;;;18.50;32.00;;;;;;5076172;28;20107;-38
2022/01/25 06:25:11;;;;;;;13.05;9.77;;;18.60;32.00;;;;;;5075482;28;20486;-41
2022/01/25 06:27:40;;;;;;;14.50;10.27;;;18.60;31.90;;;;;;5093509;28;20027;-38
2022/01/25 06:30:16;;;;;;;12.13;9.93;;;18.60;31.80;;;;;;5075482;28;20012;-38
2022/01/25 06:32:42;;;;;;;13.52;9.63;;;18.80;31.80;;;;;;5093356;28;20020;-38
2022/01/25 06:35:08;;;;;;;10.88;8.85;;;19.00;31.60;;;;;;5093680;28;20019;-38
2022/01/25 06:37:34;;;;;;;11.32;9.02;;;19.10;31.30;;;;;;5093535;28;20039;-40
2022/01/25 06:40:00;;;;;;;10.68;8.85;;;19.20;31.20;;;;;;5093290;28;20020;-38
2022/01/25 06:42:29;;;;;;;13.02;8.80;;;19.30;31.00;;;;;;5093339;28;20027;-37
2022/01/25 06:44:59;;;;;;;9.93;8.73;;;19.40;31.00;;;;;;5075807;28;20052;-40
2022/01/25 06:47:25;;;;;;;10.93;8.40;;;19.40;30.80;;;;;;5075633;28;20028;-40
2022/01/25 06:49:54;;;;;;;11.20;8.63;;;19.50;30.70;;;;;;5075012;28;20024;-38
2022/01/25 06:52:20;;;;;;;11.30;8.80;;;19.50;30.70;;;;;;5093201;28;20032;-48
2022/01/25 06:54:47;;;;;;;11.00;9.07;;;19.50;30.70;;;;;;5054155;28;20064;-38
2022/01/25 06:57:13;;;;;;;11.30;9.07;;;19.60;30.70;;;;;;5052671;28;20017;-43
2022/01/25 06:59:39;;;;;;;13.30;8.73;;;19.60;30.60;;;;;;5051720;28;20017;-41
2022/01/25 07:02:10;;;;;;;11.77;9.10;;;19.60;30.50;;;;;;5051931;28;20487;-39
2022/01/25 07:04:36;;;;;;;12.50;9.40;;;19.70;30.50;;;;;;5052822;28;20021;-41
2022/01/25 07:07:05;;;;;;;10.90;8.40;;;19.70;30.50;;;;;;5052482;28;20096;-38
2022/01/25 07:09:35;;;;;;;10.93;8.82;;;19.80;30.50;;;;;;5051684;28;20071;-39
2022/01/25 07:12:01;;;;;;;11.65;8.60;;;19.80;30.30;;;;;;5051430;28;20025;-38
2022/01/25 07:14:27;;;;;;;13.25;8.75;;;19.90;30.20;;;;;;5051430;28;20136;-38
2022/01/25 07:16:54;;;;;;;10.70;8.15;;;19.90;30.30;;;;;;5051359;28;20017;-40
2022/01/25 07:19:24;;;;;;;10.82;7.82;;;20.00;30.30;;;;;;5051463;28;20553;-39
2022/01/25 07:21:50;;;;;;;12.50;7.75;;;20.00;30.20;;;;;;5052628;28;20460;-38
2022/01/25 07:24:17;;;;;;;10.23;8.23;;;20.10;30.10;;;;;;5051682;28;20028;-37
2022/01/25 07:26:43;;;;;;;15.50;8.90;;;20.10;30.40;;;;;;5052611;28;20017;-37
2022/01/25 07:29:10;;;;;;;13.48;9.30;;;20.10;31.10;;;;;;5052984;28;20009;-37
2022/01/25 07:31:36;;;;;;;13.25;9.05;;;20.20;31.40;;;;;;5053527;28;20059;-37
2022/01/25 07:34:03;;;;;;;14.52;9.82;;;20.20;31.70;;;;;;5053463;28;20032;-41
2022/01/25 07:36:28;;;;;;;14.88;9.43;;;20.30;32.00;;;;;;5054180;28;20017;-36
2022/01/25 07:38:54;;;;;;;14.45;9.48;;;20.30;31.90;;;;;;5055558;28;20017;-36
2022/01/25 07:41:21;;;;;;;19.98;9.88;;;20.40;31.90;;;;;;5054908;28;20017;-37
2022/01/25 07:43:49;;;;;;;16.33;9.48;;;20.40;32.00;;;;;;5055531;28;20054;-35
2022/01/25 07:46:16;;;;;;;19.92;10.02;;;20.50;32.00;;;;;;5055267;28;20031;-44
2022/01/25 07:48:42;;;;;;;14.00;9.32;;;20.50;32.10;;;;;;5055374;28;20017;-36
2022/01/25 07:51:08;;;;;;;17.35;9.43;;;20.50;32.20;;;;;;5055080;28;20044;-36
2022/01/25 07:53:37;;;;;;;17.25;9.90;;;20.60;32.40;;;;;;5054967;28;20071;-36
2022/01/25 07:56:03;;;;;;;14.82;10.05;;;20.60;32.40;;;;;;5056289;28;20531;-36
2022/01/25 07:58:35;;;;;;;17.05;10.30;;;20.70;32.50;;;;;;5055282;28;20017;-35
2022/01/25 08:01:01;;;;;;;16.80;10.68;;;20.70;32.50;;;;;;5038432;28;20021;-36
2022/01/25 08:03:26;;;;;;;18.65;10.30;;;20.60;32.60;;;;;;5055411;28;20017;-37
2022/01/25 08:05:52;;;;;;;22.17;10.98;;;20.70;32.70;;;;;;5056025;28;20029;-36
2022/01/25 08:08:18;;;;;;;16.02;10.15;;;20.80;32.80;;;;;;5057060;28;20025;-36
2022/01/25 08:10:45;;;;;;;17.17;10.55;;;20.80;32.80;;;;;;5057424;28;20092;-37
2022/01/25 08:13:11;;;;;;;16.80;10.68;;;20.80;32.70;;;;;;5054479;28;20108;-35
2022/01/25 08:15:37;;;;;;;15.88;10.50;;;20.90;32.70;;;;;;5054322;28;20017;-36
2022/01/25 08:18:03;;;;;;;20.30;11.20;;;20.90;33.20;;;;;;5054776;28;20025;-44
2022/01/25 08:20:29;;;;;;;22.90;11.23;;;20.80;32.90;;;;;;5038861;28;20023;-35
2022/01/25 08:22:55;;;;;;;20.92;11.40;;;20.80;33.30;;;;;;5055110;28;20113;-35
2022/01/25 08:25:21;;;;;;;20.23;10.63;;;20.90;33.70;;;;;;5054956;28;20040;-36
2022/01/25 08:27:49;;;;;;;18.67;10.55;;;20.90;33.70;;;;;;5056369;28;20013;-35
2022/01/25 08:30:15;;;;;;;19.85;11.63;;;21.00;33.90;;;;;;5056663;28;20023;-37
2022/01/25 08:32:41;;;;;;;21.50;11.88;;;21.10;34.00;;;;;;5038086;28;20115;-37
2022/01/25 08:35:07;;;;;;;18.80;11.77;;;21.10;34.00;;;;;;5054579;28;20017;-37
2022/01/25 08:37:33;;;;;;;24.27;12.35;;;21.20;34.20;;;;;;5054809;28;20017;-37
2022/01/25 08:39:59;;;;;;;20.33;11.40;;;21.20;34.10;;;;;;5055074;28;20142;-36
2022/01/25 08:42:25;;;;;;;18.67;11.15;;;21.30;34.10;;;;;;5056054;28;20051;-37
2022/01/25 08:44:51;;;;;;;14.85;11.35;;;21.40;34.30;;;;;;5054395;28;20033;-37
2022/01/25 08:47:17;;;;;;;25.70;13.50;;;21.30;34.30;;;;;;5054225;28;20024;-38
2022/01/25 08:49:43;;;;;;;28.50;15.20;;;21.20;33.90;;;;;;5038219;28;20032;-38
2022/01/25 08:52:09;;;;;;;26.10;14.55;;;21.10;33.50;;;;;;5056058;28;20139;-38
2022/01/25 08:54:35;;;;;;;28.38;15.88;;;21.00;33.40;;;;;;5082920;28;20067;-37
2022/01/25 09:03:45;;;;;;;23.33;15.90;;;20.80;32.90;;;;;;5096123;28;20554;-38
2022/01/25 09:06:12;;;;;;;25.55;16.95;;;20.70;32.80;;;;;;5096535;28;20091;-38
2022/01/25 09:08:38;;;;;;;26.80;19.60;;;20.60;32.60;;;;;;5078332;28;20016;-37
2022/01/25 09:11:06;;;;;;;27.48;18.42;;;20.50;32.20;;;;;;5096057;28;20008;-37
2022/01/25 09:13:34;;;;;;;34.58;19.05;;;20.50;32.00;;;;;;5078596;28;20028;-37
2022/01/25 09:16:00;;;;;;;24.90;18.25;;;20.60;31.70;;;;;;5062638;28;20131;-38
2022/01/25 09:18:27;;;;;;;25.02;17.52;;;20.60;31.50;;;;;;5078468;28;20023;-39
2022/01/25 09:20:54;;;;;;;25.17;17.08;;;20.60;31.30;;;;;;5095301;28;20011;-37
2022/01/25 09:23:23;;;;;;;26.30;17.63;;;20.60;31.10;;;;;;5094957;28;20016;-37
2022/01/25 09:25:49;;;;;;;24.13;16.92;;;20.50;31.00;;;;;;5077866;28;20012;-37
2022/01/25 09:28:18;;;;;;;24.50;17.75;;;20.50;30.90;;;;;;5095644;28;20012;-38
2022/01/25 09:30:45;;;;;;;20.45;17.13;;;20.40;30.90;;;;;;5077254;28;20013;-38
2022/01/25 09:33:11;;;;;;;23.85;16.77;;;20.40;30.90;;;;;;5077515;28;20024;-39
2022/01/25 09:35:37;;;;;;;24.88;17.20;;;20.40;30.80;;;;;;5060333;28;20016;-37
2022/01/25 09:38:02;;;;;;;24.98;17.42;;;20.40;30.70;;;;;;5059789;28;20023;-38
2022/01/25 09:44:40;;;;;;;22.90;16.63;;;20.30;30.60;;;;;;5096364;28;20090;-37
2022/01/25 09:47:06;;;;;;;25.83;17.42;;;20.30;30.60;;;;;;5096442;28;20028;-37
2022/01/25 09:49:33;;;;;;;24.35;17.38;;;20.30;30.50;;;;;;5096935;28;20016;-39
2022/01/25 09:52:00;;;;;;;21.50;17.15;;;20.30;30.50;;;;;;5096321;28;20008;-37
2022/01/25 09:54:26;;;;;;;21.17;17.08;;;20.30;30.50;;;;;;5077889;28;20051;-37
2022/01/25 09:56:53;;;;;;;25.98;18.05;;;20.30;30.40;;;;;;5077477;28;20005;-36
2022/01/25 09:59:19;;;;;;;22.77;18.20;;;20.20;30.40;;;;;;5093980;28;20371;-39
2022/01/25 10:01:48;;;;;;;25.48;18.42;;;20.20;30.30;;;;;;5076652;28;20122;-37
2022/01/25 10:04:30;;;;;;;23.48;17.98;;;20.20;30.30;;;;;;5076588;28;20020;-38
2022/01/25 10:06:56;;;;;;;23.50;17.30;;;20.20;30.30;;;;;;5094558;28;20036;-37
2022/01/25 10:09:25;;;;;;;23.75;18.55;;;20.20;30.30;;;;;;5094230;28;20020;-38
2022/01/25 10:11:53;;;;;;;25.50;18.65;;;20.10;30.30;;;;;;5059210;28;20557;-38
2022/01/25 10:14:23;;;;;;;27.50;19.10;;;20.10;31.10;;;;;;5093732;28;20052;-38
2022/01/25 10:16:52;;;;;;;27.60;18.75;;;20.00;31.80;;;;;;5094088;28;20093;-37
2022/01/25 10:19:25;;;;;;;26.50;17.92;;;20.30;32.00;;;;;;5076673;28;20012;-38
2022/01/25 10:21:51;;;;;;;26.17;16.48;;;20.50;32.00;;;;;;5076480;28;20485;-37
2022/01/25 10:24:19;;;;;;;32.53;16.50;;;20.70;31.80;;;;;;5093964;28;20020;-36
2022/01/25 10:26:58;;;;;;;21.73;14.63;;;20.90;31.80;;;;;;5093864;28;20045;-37
2022/01/25 10:29:31;;;;;;;26.70;15.47;;;21.00;31.80;;;;;;5093481;28;20085;-37
2022/01/25 10:32:23;;;;;;;28.98;15.50;;;21.10;31.90;;;;;;5076524;28;20262;-37
2022/01/25 10:34:50;;;;;;;27.58;15.07;;;21.20;31.80;;;;;;5088548;28;20096;-38
2022/01/25 10:37:18;;;;;;;29.60;15.38;;;21.30;31.90;;;;;;5093517;28;20019;-37
2022/01/25 10:39:48;;;;;;;22.52;14.68;;;21.30;31.70;;;;;;5075686;28;20016;-37
2022/01/25 10:42:18;;;;;;;24.20;15.05;;;21.40;31.90;;;;;;5075376;28;20091;-38
2022/01/25 10:45:03;;;;;;;28.42;14.90;;;21.50;32.00;;;;;;5075094;28;20016;-37
2022/01/25 10:47:42;;;;;;;23.45;14.63;;;21.50;32.00;;;;;;5092909;28;20419;-36
2022/01/25 10:50:14;;;;;;;19.95;13.35;;;21.60;31.90;;;;;;5075597;28;20100;-35
2022/01/25 10:52:40;;;;;;;23.88;13.90;;;21.60;31.90;;;;;;5093385;28;20020;-36
2022/01/25 10:55:06;;;;;;;26.13;14.38;;;21.70;31.70;;;;;;5093115;28;20059;-38
2022/01/25 10:57:32;;;;;;;21.75;14.07;;;21.80;31.80;;;;;;5076418;28;20027;-36
2022/01/25 10:59:59;;;;;;;26.08;14.43;;;21.80;31.90;;;;;;5076130;28;20098;-36
2022/01/25 11:02:25;;;;;;;23.88;16.05;;;21.60;32.00;;;;;;5077512;28;20070;-36
2022/01/25 11:04:52;;;;;;;22.30;14.75;;;21.20;32.20;;;;;;5077209;28;20034;-35
2022/01/25 11:07:18;;;;;;;24.02;17.80;;;20.80;33.00;;;;;;5076958;28;20017;-36
2022/01/25 11:09:46;;;;;;;31.25;20.63;;;20.40;32.80;;;;;;5076450;28;20082;-36
2022/01/25 11:12:18;;;;;;;27.42;20.00;;;20.50;31.90;;;;;;5080377;28;20012;-36
2022/01/25 11:14:53;;;;;;;29.48;19.02;;;20.60;31.60;;;;;;5097569;28;21059;-35
2022/01/25 11:17:23;;;;;;;26.42;18.45;;;20.80;31.40;;;;;;5097945;28;20013;-35
2022/01/25 11:19:48;;;;;;;27.98;17.33;;;20.90;31.00;;;;;;5097863;28;20014;-36
2022/01/25 11:22:19;;;;;;;26.33;16.30;;;21.10;30.80;;;;;;5097819;28;20012;-35
2022/01/25 11:24:49;;;;;;;;;;;21.10;30.60;;;;;;5098382;28;20055;-36
2022/01/25 11:27:18;;;;;;;23.75;15.75;;;21.20;30.60;;;;;;5079529;28;19900;-36
2022/01/25 11:29:44;;;;;;;20.52;15.43;;;21.30;30.30;;;;;;5079955;28;20016;-36
2022/01/25 11:32:15;;;;;;;25.05;15.77;;;21.30;30.10;;;;;;5080215;28;20080;-37
2022/01/25 11:34:40;;;;;;;;;;;21.40;30.10;;;;;;5097845;28;20024;-36
2022/01/25 11:37:07;;;;;;;22.92;15.48;;;21.30;30.00;;;;;;5097176;28;19983;-35
2022/01/25 11:39:33;;;;;;;21.17;15.57;;;21.40;30.00;;;;;;5078808;28;20554;-35
2022/01/25 11:42:04;;;;;;;23.88;15.68;;;21.40;30.00;;;;;;5061487;28;20045;-35
2022/01/25 11:44:31;;;;;;;22.77;16.23;;;21.40;29.90;;;;;;5096964;28;20080;-37
2022/01/25 11:47:04;;;;;;;19.73;15.98;;;21.40;29.90;;;;;;5095656;28;20043;-35
2022/01/25 11:49:31;;;;;;;29.48;20.17;;;21.30;29.90;;;;;;5077250;28;20032;-36
2022/01/25 11:52:04;;;;;;;36.58;22.25;;;21.00;30.20;;;;;;5095662;28;20016;-35
2022/01/25 11:54:31;;;;;;;49.75;22.65;;;20.90;30.60;;;;;;5095983;28;20055;-36
2022/01/25 11:57:10;;;;;;;38.97;21.80;;;20.80;30.90;;;;;;5061240;28;20016;-36
2022/01/25 11:59:36;;;;;;;32.30;21.52;;;20.80;31.00;;;;;;5096656;28;20023;-36
2022/01/25 12:02:03;;;;;;;31.23;20.67;;;20.70;31.00;;;;;;5078708;28;20016;-35
2022/01/25 12:04:29;;;;;;;34.83;22.02;;;20.80;31.70;;;;;;5097184;28;20012;-35
2022/01/25 12:07:01;;;;;;;40.00;22.27;;;20.70;31.20;;;;;;5096973;28;20020;-36
2022/01/25 12:09:44;;;;;;;30.98;20.83;;;20.80;31.30;;;;;;5097147;28;20019;-36
2022/01/25 12:12:10;;;;;;;27.30;21.23;;;20.80;31.30;;;;;;5080600;28;20466;-36
2022/01/25 12:14:41;;;;;;;33.10;21.70;;;20.80;31.20;;;;;;5096296;28;20090;-36
2022/01/25 12:17:06;;;;;;;34.55;22.52;;;20.80;31.20;;;;;;5096019;28;20108;-36
2022/01/25 12:19:51;;;;;;;27.83;20.80;;;20.80;31.20;;;;;;5095899;28;20545;-35
2022/01/25 12:22:42;;;;;;;31.13;20.92;;;20.80;31.30;;;;;;5095477;28;20050;-35
2022/01/25 12:27:58;;;;;;;26.60;21.08;;;20.90;31.40;;;;;;5095477;28;20050;-36
2022/01/25 12:30:40;;;;;;;27.55;21.08;;;20.90;31.30;;;;;;5095797;28;20487;-36
2022/01/25 12:33:08;;;;;;;28.90;21.70;;;20.90;31.20;;;;;;5095658;28;20038;-36
2022/01/25 12:35:39;;;;;;;29.65;22.45;;;21.00;31.20;;;;;;5095447;28;20066;-38
2022/01/25 12:38:44;;;;;;;31.85;21.75;;;21.00;31.20;;;;;;5077072;28;20065;-36
2022/01/25 12:41:23;;;;;;;29.98;22.45;;;20.90;31.30;;;;;;5074050;28;20036;-36
2022/01/25 12:43:53;;;;;;;35.47;24.08;;;20.80;31.50;;;;;;5078252;28;20043;-37
2022/01/25 12:46:20;;;;;;;38.88;23.58;;;20.80;31.40;;;;;;5076942;28;20101;-37
2022/01/25 12:48:53;;;;;;;34.13;23.40;;;20.90;31.30;;;;;;5060341;28;20020;-35
2022/01/25 12:51:22;;;;;;;32.90;23.13;;;20.90;31.20;;;;;;5095355;28;20012;-36
2022/01/25 12:53:50;;;;;;;31.90;22.38;;;20.90;31.00;;;;;;5076564;28;20109;-35
2022/01/25 12:56:22;;;;;;;30.52;23.08;;;20.90;31.00;;;;;;5077300;28;20038;-35
2022/01/25 12:58:59;;;;;;;30.58;22.65;;;20.90;30.80;;;;;;5094792;28;20016;-36
2022/01/25 13:01:26;;;;;;;34.97;22.52;;;20.90;30.90;;;;;;5076716;28;20091;-40
2022/01/25 13:03:57;;;;;;;32.13;22.83;;;20.90;30.80;;;;;;5060425;28;20078;-37
2022/01/25 13:06:36;;;;;;;34.42;23.25;;;20.90;30.70;;;;;;5095605;28;20019;-37
2022/01/25 13:09:11;;;;;;;30.00;23.83;;;20.80;30.40;;;;;;5062607;28;20027;-36
2022/01/25 13:16:53;;;;;;;27.70;22.48;;;20.80;30.40;;;;;;5077617;28;20497;-36
2022/01/25 13:19:36;;;;;;;29.60;22.48;;;20.90;30.40;;;;;;5095213;28;20485;-36
2022/01/25 13:22:12;;;;;;;30.42;22.33;;;21.00;30.30;;;;;;5078159;28;20008;-35
2022/01/25 13:27:54;;;;;;;28.90;22.55;;;20.80;30.10;;;;;;5064896;28;20036;-37
2022/01/25 13:30:45;;;;;;;35.20;22.75;;;20.90;30.10;;;;;;5078270;28;20050;-38
2022/01/25 13:33:19;;;;;;;31.13;22.92;;;20.90;30.10;;;;;;5077324;28;20081;-34
2022/01/25 13:35:52;;;;;;;32.33;22.48;;;20.80;30.00;;;;;;5094894;28;20040;-35
2022/01/25 13:38:19;;;;;;;28.35;22.38;;;20.80;30.00;;;;;;5077661;28;20053;-36
2022/01/25 13:45:43;;;;;;;32.75;22.05;;;20.90;30.10;;;;;;5078090;28;20080;-40
2022/01/25 13:46:19;;;;;;;30.75;22.73;;;20.90;30.00;;;;;;5095349;28;20020;-35
2022/01/25 13:48:46;;;;;;;29.05;21.50;;;21.00;30.00;;;;;;5077183;28;20012;-35
2022/01/25 13:51:14;;;;;;;34.17;22.73;;;21.10;30.10;;;;;;5095428;28;20107;-35
2022/01/25 13:53:41;;;;;;;30.65;22.55;;;21.10;30.00;;;;;;5094655;28;20051;-39
2022/01/25 13:56:30;;;;;;;32.67;22.85;;;21.00;30.00;;;;;;5095417;28;20497;-36
2022/01/25 13:58:57;;;;;;;33.00;22.83;;;21.10;30.10;;;;;;5095644;28;20004;-36
2022/01/25 14:01:24;;;;;;;34.50;22.27;;;21.10;30.10;;;;;;5095798;28;20012;-35
2022/01/25 14:04:14;;;;;;;28.55;21.30;;;21.10;30.10;;;;;;5095085;28;20020;-35
2022/01/25 14:06:41;;;;;;;31.27;22.75;;;21.10;30.10;;;;;;5076919;28;20026;-34
2022/01/25 14:09:25;;;;;;;33.03;23.10;;;21.10;30.00;;;;;;5096046;28;20045;-37
2022/01/25 14:25:48;;;;;;;26.58;17.88;;;21.70;29.70;;;;;;5080613;28;20032;-38
2022/01/25 14:28:22;;;;;;;24.63;18.38;;;21.70;29.60;;;;;;5080544;28;20016;-36
2022/01/25 14:30:55;;;;;;;22.98;16.77;;;21.70;29.60;;;;;;5078766;28;20050;-36
2022/01/25 14:33:32;;;;;;;26.10;16.75;;;21.80;29.60;;;;;;5078725;28;20024;-36
2022/01/25 14:36:00;;;;;;;23.50;18.02;;;21.70;29.60;;;;;;5096257;28;20040;-36
2022/01/25 14:38:39;;;;;;;21.08;17.20;;;21.70;29.60;;;;;;5079980;28;20016;-37
2022/01/25 14:41:19;;;;;;;25.02;16.13;;;21.60;29.70;;;;;;5098556;28;20016;-36
2022/01/25 14:43:49;;;;;;;26.15;17.15;;;21.60;29.80;;;;;;5097586;28;20008;-35
2022/01/25 14:46:24;;;;;;;23.13;16.67;;;21.50;29.80;;;;;;5097789;28;20019;-36
2022/01/25 14:48:58;;;;;;;24.63;17.75;;;21.50;29.90;;;;;;5097184;28;20061;-35
2022/01/25 14:51:51;;;;;;;23.00;16.60;;;21.30;30.00;;;;;;5095904;28;20020;-36
2022/01/25 14:54:25;;;;;;;23.98;17.20;;;21.30;30.00;;;;;;5095287;28;20044;-36
2022/01/25 14:56:55;;;;;;;23.90;16.98;;;21.20;30.10;;;;;;5077375;28;20467;-37
2022/01/25 14:59:26;;;;;;;;;;;21.10;30.30;;;;;;5079446;28;20482;-37